sensor_id;sensor_type;location;lat;lon;timestamp;temperature;humidity
7000;DHT22;3540;53.242;10.408;2023-04-24T00:00:09;12.10;1.00
7000;DHT22;3540;53.242;10.408;2023-04-24T00:02:35;12.10;1.00
7000;DHT22;3540;53.242;10.408;2023-04-24T00:05:04;12.10;1.00
7000;DHT22;3540;53.242;10.408;2023-04-24T00:07:30;12.10;1.00
7000;DHT22;3540;53.242;10.408;2023-04-24T00:09:56;12.00;1.00
7000;DHT22;3540;53.242;10.408;2023-04-24T00:12:22;12.00;1.00
7000;DHT22;3540;53.242;10.408;2023-04-24T00:14:47;12.00;1.00
7000;DHT22;3540;53.242;10.408;2023-04-24T00:17:13;12.00;1.00
7000;DHT22;3540;53.242;10.408;2023-04-24T00:19:39;11.90;1.00
7000;DHT22;3540;53.242;10.408;2023-04-24T00:22:04;11.80;1.00
7000;DHT22;3540;53.242;10.408;2023-04-24T00:24:30;11.80;1.00
7000;DHT22;3540;53.242;10.408;2023-04-24T00:26:56;11.70;1.00
7000;DHT22;3540;53.242;10.408;2023-04-24T00:29:22;11.70;1.00
7000;DHT22;3540;53.242;10.408;2023-04-24T00:31:47;11.70;1.00
7000;DHT22;3540;53.242;10.408;2023-04-24T00:34:13;11.60;1.00
7000;DHT22;3540;53.242;10.408;2023-04-24T00:36:39;11.60;1.00
7000;DHT22;3540;53.242;10.408;2023-04-24T00:39:05;11.70;1.00
7000;DHT22;3540;53.242;10.408;2023-04-24T00:41:34;11.70;1.00
7000;DHT22;3540;53.242;10.408;2023-04-24T00:43:59;11.70;1.00
7000;DHT22;3540;53.242;10.408;2023-04-24T00:46:25;11.70;1.00
7000;DHT22;3540;53.242;10.408;2023-04-24T00:48:51;11.70;1.00
7000;DHT22;3540;53.242;10.408;2023-04-24T00:51:17;11.70;1.00
7000;DHT22;3540;53.242;10.408;2023-04-24T00:53:43;11.70;1.00
7000;DHT22;3540;53.242;10.408;2023-04-24T00:56:09;11.70;1.00
7000;DHT22;3540;53.242;10.408;2023-04-24T00:58:35;11.70;1.00
7000;DHT22;3540;53.242;10.408;2023-04-24T01:01:02;11.70;1.00
7000;DHT22;3540;53.242;10.408;2023-04-24T01:03:29;11.80;1.00
7000;DHT22;3540;53.242;10.408;2023-04-24T01:05:57;11.70;1.00
7000;DHT22;3540;53.242;10.408;2023-04-24T01:08:24;11.70;1.00
7000;DHT22;3540;53.242;10.408;2023-04-24T01:10:52;11.70;1.00
7000;DHT22;3540;53.242;10.408;2023-04-24T01:13:18;11.70;1.00
7000;DHT22;3540;53.242;10.408;2023-04-24T01:15:45;11.70;1.00
7000;DHT22;3540;53.242;10.408;2023-04-24T01:18:11;11.70;1.00
7000;DHT22;3540;53.242;10.408;2023-04-24T01:20:38;11.60;1.00
7000;DHT22;3540;53.242;10.408;2023-04-24T01:23:05;11.60;1.00
7000;DHT22;3540;53.242;10.408;2023-04-24T01:25:31;11.50;1.00
7000;DHT22;3540;53.242;10.408;2023-04-24T01:27:58;11.40;1.00
7000;DHT22;3540;53.242;10.408;2023-04-24T01:30:25;11.40;1.00
7000;DHT22;3540;53.242;10.408;2023-04-24T01:32:51;11.40;1.00
7000;DHT22;3540;53.242;10.408;2023-04-24T01:35:17;11.30;1.00
7000;DHT22;3540;53.242;10.408;2023-04-24T01:37:43;11.30;1.00
7000;DHT22;3540;53.242;10.408;2023-04-24T01:40:09;11.20;1.00
7000;DHT22;3540;53.242;10.408;2023-04-24T01:42:35;11.20;1.00
7000;DHT22;3540;53.242;10.408;2023-04-24T01:45:03;11.20;1.00
7000;DHT22;3540;53.242;10.408;2023-04-24T01:47:30;11.10;1.00
7000;DHT22;3540;53.242;10.408;2023-04-24T01:49:55;11.10;1.00
7000;DHT22;3540;53.242;10.408;2023-04-24T01:52:21;11.00;1.00
7000;DHT22;3540;53.242;10.408;2023-04-24T01:54:47;11.00;1.00
7000;DHT22;3540;53.242;10.408;2023-04-24T01:57:14;11.00;1.00
7000;DHT22;3540;53.242;10.408;2023-04-24T01:59:40;11.00;1.00
7000;DHT22;3540;53.242;10.408;2023-04-24T02:02:05;11.00;1.00
7000;DHT22;3540;53.242;10.408;2023-04-24T02:04:31;11.10;1.00
7000;DHT22;3540;53.242;10.408;2023-04-24T02:06:57;11.20;1.00
7000;DHT22;3540;53.242;10.408;2023-04-24T02:09:22;11.20;1.00
7000;DHT22;3540;53.242;10.408;2023-04-24T02:11:48;11.20;1.00
7000;DHT22;3540;53.242;10.408;2023-04-24T02:14:14;11.20;1.00
7000;DHT22;3540;53.242;10.408;2023-04-24T02:16:39;11.20;1.00
7000;DHT22;3540;53.242;10.408;2023-04-24T02:19:05;11.10;1.00
7000;DHT22;3540;53.242;10.408;2023-04-24T02:21:31;11.10;1.00
7000;DHT22;3540;53.242;10.408;2023-04-24T02:23:57;11.10;1.00
7000;DHT22;3540;53.242;10.408;2023-04-24T02:26:23;11.10;1.00
7000;DHT22;3540;53.242;10.408;2023-04-24T02:28:49;11.10;1.00
7000;DHT22;3540;53.242;10.408;2023-04-24T02:31:15;11.10;1.00
7000;DHT22;3540;53.242;10.408;2023-04-24T02:33:40;11.10;1.00
7000;DHT22;3540;53.242;10.408;2023-04-24T02:36:06;11.00;1.00
7000;DHT22;3540;53.242;10.408;2023-04-24T02:38:32;11.00;1.00
7000;DHT22;3540;53.242;10.408;2023-04-24T02:40:58;11.00;1.00
7000;DHT22;3540;53.242;10.408;2023-04-24T02:43:23;10.90;1.00
7000;DHT22;3540;53.242;10.408;2023-04-24T02:45:49;10.90;1.00
7000;DHT22;3540;53.242;10.408;2023-04-24T02:48:15;10.90;1.00
7000;DHT22;3540;53.242;10.408;2023-04-24T02:50:40;10.90;1.00
7000;DHT22;3540;53.242;10.408;2023-04-24T02:53:06;11.00;1.00
7000;DHT22;3540;53.242;10.408;2023-04-24T02:55:31;11.00;1.00
7000;DHT22;3540;53.242;10.408;2023-04-24T02:57:57;11.00;1.00
7000;DHT22;3540;53.242;10.408;2023-04-24T03:00:23;11.00;1.00
7000;DHT22;3540;53.242;10.408;2023-04-24T03:02:49;11.00;1.00
7000;DHT22;3540;53.242;10.408;2023-04-24T03:05:15;11.00;1.00
7000;DHT22;3540;53.242;10.408;2023-04-24T03:07:41;10.90;1.00
7000;DHT22;3540;53.242;10.408;2023-04-24T03:10:07;10.90;1.00
7000;DHT22;3540;53.242;10.408;2023-04-24T03:12:33;10.80;1.00
7000;DHT22;3540;53.242;10.408;2023-04-24T03:14:58;10.80;1.00
7000;DHT22;3540;53.242;10.408;2023-04-24T03:17:24;10.80;1.00
7000;DHT22;3540;53.242;10.408;2023-04-24T03:19:49;10.80;1.00
7000;DHT22;3540;53.242;10.408;2023-04-24T03:22:15;10.80;1.00
7000;DHT22;3540;53.242;10.408;2023-04-24T03:24:41;10.80;1.00
7000;DHT22;3540;53.242;10.408;2023-04-24T03:27:06;10.70;1.00
7000;DHT22;3540;53.242;10.408;2023-04-24T03:29:32;10.70;1.00
7000;DHT22;3540;53.242;10.408;2023-04-24T03:31:57;10.60;1.00
7000;DHT22;3540;53.242;10.408;2023-04-24T03:34:23;10.60;1.00
7000;DHT22;3540;53.242;10.408;2023-04-24T03:36:49;10.50;1.00
7000;DHT22;3540;53.242;10.408;2023-04-24T03:39:14;10.50;1.00
7000;DHT22;3540;53.242;10.408;2023-04-24T03:41:40;10.50;1.00
7000;DHT22;3540;53.242;10.408;2023-04-24T03:44:06;10.40;1.00
7000;DHT22;3540;53.242;10.408;2023-04-24T03:46:31;10.40;1.00
7000;DHT22;3540;53.242;10.408;2023-04-24T03:48:57;10.30;1.00
7000;DHT22;3540;53.242;10.408;2023-04-24T03:51:22;10.30;1.00
7000;DHT22;3540;53.242;10.408;2023-04-24T03:53:49;10.30;1.00
7000;DHT22;3540;53.242;10.408;2023-04-24T03:56:15;10.30;1.00
7000;DHT22;3540;53.242;10.408;2023-04-24T03:58:41;10.30;1.00
7000;DHT22;3540;53.242;10.408;2023-04-24T04:01:07;10.20;1.00
7000;DHT22;3540;53.242;10.408;2023-04-24T04:03:33;10.20;1.00
7000;DHT22;3540;53.242;10.408;2023-04-24T04:05:58;10.20;1.00
7000;DHT22;3540;53.242;10.408;2023-04-24T04:08:24;10.10;1.00
7000;DHT22;3540;53.242;10.408;2023-04-24T04:10:50;10.10;1.00
7000;DHT22;3540;53.242;10.408;2023-04-24T04:13:16;10.00;1.00
7000;DHT22;3540;53.242;10.408;2023-04-24T04:15:41;10.00;1.00
7000;DHT22;3540;53.242;10.408;2023-04-24T04:18:07;9.90;1.00
7000;DHT22;3540;53.242;10.408;2023-04-24T04:20:33;9.90;1.00
7000;DHT22;3540;53.242;10.408;2023-04-24T04:22:59;9.80;1.00
7000;DHT22;3540;53.242;10.408;2023-04-24T04:25:25;9.80;1.00
7000;DHT22;3540;53.242;10.408;2023-04-24T04:27:51;9.70;1.00
7000;DHT22;3540;53.242;10.408;2023-04-24T04:30:17;9.70;1.00
7000;DHT22;3540;53.242;10.408;2023-04-24T04:32:43;9.70;1.00
7000;DHT22;3540;53.242;10.408;2023-04-24T04:35:09;9.60;1.00
7000;DHT22;3540;53.242;10.408;2023-04-24T04:37:35;9.70;1.00
7000;DHT22;3540;53.242;10.408;2023-04-24T04:40:02;9.60;1.00
7000;DHT22;3540;53.242;10.408;2023-04-24T04:42:37;9.60;1.00
7000;DHT22;3540;53.242;10.408;2023-04-24T04:45:08;9.60;1.00
7000;DHT22;3540;53.242;10.408;2023-04-24T04:47:38;9.60;1.00
7000;DHT22;3540;53.242;10.408;2023-04-24T04:50:05;9.60;1.00
7000;DHT22;3540;53.242;10.408;2023-04-24T04:52:31;9.60;1.00
7000;DHT22;3540;53.242;10.408;2023-04-24T04:54:56;9.60;1.00
7000;DHT22;3540;53.242;10.408;2023-04-24T04:57:22;9.60;1.00
7000;DHT22;3540;53.242;10.408;2023-04-24T04:59:48;9.60;1.00
7000;DHT22;3540;53.242;10.408;2023-04-24T05:02:13;9.70;1.00
7000;DHT22;3540;53.242;10.408;2023-04-24T05:04:39;9.80;1.00
7000;DHT22;3540;53.242;10.408;2023-04-24T05:07:05;9.80;1.00
7000;DHT22;3540;53.242;10.408;2023-04-24T05:09:31;9.80;1.00
7000;DHT22;3540;53.242;10.408;2023-04-24T05:11:57;9.90;1.00
7000;DHT22;3540;53.242;10.408;2023-04-24T05:14:22;9.90;1.00
7000;DHT22;3540;53.242;10.408;2023-04-24T05:16:48;10.00;1.00
7000;DHT22;3540;53.242;10.408;2023-04-24T05:19:14;10.00;1.00
7000;DHT22;3540;53.242;10.408;2023-04-24T05:21:40;10.10;1.00
7000;DHT22;3540;53.242;10.408;2023-04-24T05:24:06;10.20;1.00
7000;DHT22;3540;53.242;10.408;2023-04-24T05:26:32;10.20;1.00
7000;DHT22;3540;53.242;10.408;2023-04-24T05:28:57;10.20;1.00
7000;DHT22;3540;53.242;10.408;2023-04-24T05:31:23;10.30;1.00
7000;DHT22;3540;53.242;10.408;2023-04-24T05:33:49;10.30;1.00
7000;DHT22;3540;53.242;10.408;2023-04-24T05:36:15;10.30;1.00
7000;DHT22;3540;53.242;10.408;2023-04-24T05:38:40;10.40;1.00
7000;DHT22;3540;53.242;10.408;2023-04-24T05:41:06;10.40;1.00
7000;DHT22;3540;53.242;10.408;2023-04-24T05:43:32;10.50;1.00
7000;DHT22;3540;53.242;10.408;2023-04-24T05:45:57;10.70;1.00
7000;DHT22;3540;53.242;10.408;2023-04-24T05:48:23;10.70;1.00
7000;DHT22;3540;53.242;10.408;2023-04-24T05:50:49;10.80;1.00
7000;DHT22;3540;53.242;10.408;2023-04-24T05:53:14;10.90;1.00
7000;DHT22;3540;53.242;10.408;2023-04-24T05:55:41;11.00;1.00
7000;DHT22;3540;53.242;10.408;2023-04-24T05:58:06;11.00;1.00
7000;DHT22;3540;53.242;10.408;2023-04-24T06:00:32;11.10;1.00
7000;DHT22;3540;53.242;10.408;2023-04-24T06:02:59;11.10;1.00
7000;DHT22;3540;53.242;10.408;2023-04-24T06:05:25;11.20;1.00
7000;DHT22;3540;53.242;10.408;2023-04-24T06:07:51;11.20;1.00
7000;DHT22;3540;53.242;10.408;2023-04-24T06:10:17;11.30;99.90
7000;DHT22;3540;53.242;10.408;2023-04-24T06:12:42;11.40;99.90
7000;DHT22;3540;53.242;10.408;2023-04-24T06:15:08;11.50;99.90
7000;DHT22;3540;53.242;10.408;2023-04-24T06:17:34;11.60;99.90
7000;DHT22;3540;53.242;10.408;2023-04-24T06:20:00;11.60;99.90
7000;DHT22;3540;53.242;10.408;2023-04-24T06:22:25;11.60;99.90
7000;DHT22;3540;53.242;10.408;2023-04-24T06:24:51;11.70;99.90
7000;DHT22;3540;53.242;10.408;2023-04-24T06:27:16;11.80;99.90
7000;DHT22;3540;53.242;10.408;2023-04-24T06:29:42;11.80;99.90
7000;DHT22;3540;53.242;10.408;2023-04-24T06:32:08;11.90;99.90
7000;DHT22;3540;53.242;10.408;2023-04-24T06:34:33;12.00;99.90
7000;DHT22;3540;53.242;10.408;2023-04-24T06:37:01;12.00;99.90
7000;DHT22;3540;53.242;10.408;2023-04-24T06:39:27;12.10;99.90
7000;DHT22;3540;53.242;10.408;2023-04-24T06:41:53;12.20;99.90
7000;DHT22;3540;53.242;10.408;2023-04-24T06:44:18;12.30;99.90
7000;DHT22;3540;53.242;10.408;2023-04-24T06:46:44;12.40;99.90
7000;DHT22;3540;53.242;10.408;2023-04-24T06:49:10;12.40;99.90
7000;DHT22;3540;53.242;10.408;2023-04-24T06:51:35;12.50;99.90
7000;DHT22;3540;53.242;10.408;2023-04-24T06:54:01;12.60;99.90
7000;DHT22;3540;53.242;10.408;2023-04-24T06:56:27;12.70;99.90
7000;DHT22;3540;53.242;10.408;2023-04-24T06:58:54;12.70;99.90
7000;DHT22;3540;53.242;10.408;2023-04-24T07:01:20;12.80;99.90
7000;DHT22;3540;53.242;10.408;2023-04-24T07:03:45;12.90;99.90
7000;DHT22;3540;53.242;10.408;2023-04-24T07:06:11;12.90;99.90
7000;DHT22;3540;53.242;10.408;2023-04-24T07:08:38;13.10;99.90
7000;DHT22;3540;53.242;10.408;2023-04-24T07:11:03;13.10;99.90
7000;DHT22;3540;53.242;10.408;2023-04-24T07:13:29;13.30;99.90
7000;DHT22;3540;53.242;10.408;2023-04-24T07:15:55;13.40;99.90
7000;DHT22;3540;53.242;10.408;2023-04-24T07:18:22;13.40;99.90
7000;DHT22;3540;53.242;10.408;2023-04-24T07:20:48;13.40;99.90
7000;DHT22;3540;53.242;10.408;2023-04-24T07:23:15;13.40;99.90
7000;DHT22;3540;53.242;10.408;2023-04-24T07:25:41;13.40;99.90
7000;DHT22;3540;53.242;10.408;2023-04-24T07:28:07;13.50;99.90
7000;DHT22;3540;53.242;10.408;2023-04-24T07:30:32;13.40;99.90
7000;DHT22;3540;53.242;10.408;2023-04-24T07:32:58;13.40;99.90
7000;DHT22;3540;53.242;10.408;2023-04-24T07:35:25;13.30;99.90
7000;DHT22;3540;53.242;10.408;2023-04-24T07:37:54;13.20;99.90
7000;DHT22;3540;53.242;10.408;2023-04-24T07:40:20;13.20;99.90
7000;DHT22;3540;53.242;10.408;2023-04-24T07:42:46;13.30;99.90
7000;DHT22;3540;53.242;10.408;2023-04-24T07:45:14;13.30;99.90
7000;DHT22;3540;53.242;10.408;2023-04-24T07:47:42;13.30;99.90
7000;DHT22;3540;53.242;10.408;2023-04-24T07:50:09;13.40;99.90
7000;DHT22;3540;53.242;10.408;2023-04-24T07:52:35;13.40;99.90
7000;DHT22;3540;53.242;10.408;2023-04-24T07:55:01;13.30;99.90
7000;DHT22;3540;53.242;10.408;2023-04-24T07:57:27;13.40;99.90
7000;DHT22;3540;53.242;10.408;2023-04-24T07:59:53;13.40;99.90
7000;DHT22;3540;53.242;10.408;2023-04-24T08:02:19;13.20;99.90
7000;DHT22;3540;53.242;10.408;2023-04-24T08:04:44;13.10;99.90
7000;DHT22;3540;53.242;10.408;2023-04-24T08:07:10;13.30;99.90
7000;DHT22;3540;53.242;10.408;2023-04-24T08:09:38;13.60;99.90
7000;DHT22;3540;53.242;10.408;2023-04-24T08:12:03;13.80;99.90
7000;DHT22;3540;53.242;10.408;2023-04-24T08:14:29;13.80;99.90
7000;DHT22;3540;53.242;10.408;2023-04-24T08:16:55;13.80;99.90
7000;DHT22;3540;53.242;10.408;2023-04-24T08:19:25;13.90;99.90
7000;DHT22;3540;53.242;10.408;2023-04-24T08:21:51;14.20;99.90
7000;DHT22;3540;53.242;10.408;2023-04-24T08:24:17;14.20;99.90
7000;DHT22;3540;53.242;10.408;2023-04-24T08:26:42;14.10;99.90
7000;DHT22;3540;53.242;10.408;2023-04-24T08:29:08;14.00;99.90
7000;DHT22;3540;53.242;10.408;2023-04-24T08:31:33;14.00;99.90
7000;DHT22;3540;53.242;10.408;2023-04-24T08:33:59;13.90;99.90
7000;DHT22;3540;53.242;10.408;2023-04-24T08:36:26;13.60;99.90
7000;DHT22;3540;53.242;10.408;2023-04-24T08:38:52;13.50;99.90
7000;DHT22;3540;53.242;10.408;2023-04-24T08:41:18;13.70;99.90
7000;DHT22;3540;53.242;10.408;2023-04-24T08:43:46;13.80;99.90
7000;DHT22;3540;53.242;10.408;2023-04-24T08:46:13;13.80;99.90
7000;DHT22;3540;53.242;10.408;2023-04-24T08:48:39;13.90;99.90
7000;DHT22;3540;53.242;10.408;2023-04-24T08:51:07;13.90;99.90
7000;DHT22;3540;53.242;10.408;2023-04-24T08:53:35;14.00;99.90
7000;DHT22;3540;53.242;10.408;2023-04-24T08:56:01;14.00;99.90
7000;DHT22;3540;53.242;10.408;2023-04-24T08:58:28;14.10;99.90
7000;DHT22;3540;53.242;10.408;2023-04-24T09:00:57;14.20;99.90
7000;DHT22;3540;53.242;10.408;2023-04-24T09:03:23;14.50;99.90
7000;DHT22;3540;53.242;10.408;2023-04-24T09:05:50;14.60;99.90
7000;DHT22;3540;53.242;10.408;2023-04-24T09:08:19;14.20;99.90
7000;DHT22;3540;53.242;10.408;2023-04-24T09:10:46;14.10;99.90
7000;DHT22;3540;53.242;10.408;2023-04-24T09:13:12;14.00;99.90
7000;DHT22;3540;53.242;10.408;2023-04-24T09:15:39;13.80;99.90
7000;DHT22;3540;53.242;10.408;2023-04-24T09:18:05;13.80;99.90
7000;DHT22;3540;53.242;10.408;2023-04-24T09:20:32;14.00;99.90
7000;DHT22;3540;53.242;10.408;2023-04-24T09:22:58;13.80;99.90
7000;DHT22;3540;53.242;10.408;2023-04-24T09:25:34;13.80;99.90
7000;DHT22;3540;53.242;10.408;2023-04-24T09:28:05;13.50;99.90
7000;DHT22;3540;53.242;10.408;2023-04-24T09:30:32;13.50;99.90
7000;DHT22;3540;53.242;10.408;2023-04-24T09:33:14;13.50;99.90
7000;DHT22;3540;53.242;10.408;2023-04-24T09:35:42;13.60;99.90
7000;DHT22;3540;53.242;10.408;2023-04-24T09:38:08;13.90;99.90
7000;DHT22;3540;53.242;10.408;2023-04-24T09:40:35;13.90;99.90
7000;DHT22;3540;53.242;10.408;2023-04-24T09:43:01;14.00;99.90
7000;DHT22;3540;53.242;10.408;2023-04-24T09:45:34;14.30;99.90
7000;DHT22;3540;53.242;10.408;2023-04-24T09:48:01;14.70;99.90
7000;DHT22;3540;53.242;10.408;2023-04-24T09:50:27;14.80;99.90
7000;DHT22;3540;53.242;10.408;2023-04-24T09:53:01;14.80;99.90
7000;DHT22;3540;53.242;10.408;2023-04-24T09:55:27;14.30;99.90
7000;DHT22;3540;53.242;10.408;2023-04-24T09:58:00;14.30;99.90
7000;DHT22;3540;53.242;10.408;2023-04-24T10:03:03;14.00;99.90
7000;DHT22;3540;53.242;10.408;2023-04-24T10:05:32;14.00;99.90
7000;DHT22;3540;53.242;10.408;2023-04-24T10:08:06;14.20;99.90
7000;DHT22;3540;53.242;10.408;2023-04-24T10:10:34;14.10;99.90
7000;DHT22;3540;53.242;10.408;2023-04-24T10:13:00;14.00;99.90
7000;DHT22;3540;53.242;10.408;2023-04-24T10:15:27;13.80;99.90
7000;DHT22;3540;53.242;10.408;2023-04-24T10:17:52;13.90;99.90
7000;DHT22;3540;53.242;10.408;2023-04-24T10:20:23;14.10;99.90
7000;DHT22;3540;53.242;10.408;2023-04-24T10:22:50;14.50;99.90
7000;DHT22;3540;53.242;10.408;2023-04-24T10:25:24;14.50;99.90
7000;DHT22;3540;53.242;10.408;2023-04-24T10:27:51;14.50;99.90
7000;DHT22;3540;53.242;10.408;2023-04-24T10:30:18;14.40;99.90
7000;DHT22;3540;53.242;10.408;2023-04-24T10:32:44;14.20;99.90
7000;DHT22;3540;53.242;10.408;2023-04-24T10:35:13;14.30;99.90
7000;DHT22;3540;53.242;10.408;2023-04-24T10:37:46;14.50;99.90
7000;DHT22;3540;53.242;10.408;2023-04-24T10:40:18;14.70;99.90
7000;DHT22;3540;53.242;10.408;2023-04-24T10:42:47;15.10;99.90
7000;DHT22;3540;53.242;10.408;2023-04-24T10:45:21;14.70;99.90
7000;DHT22;3540;53.242;10.408;2023-04-24T10:47:57;14.30;99.90
7000;DHT22;3540;53.242;10.408;2023-04-24T10:50:25;14.30;99.90
7000;DHT22;3540;53.242;10.408;2023-04-24T10:52:52;13.90;99.90
7000;DHT22;3540;53.242;10.408;2023-04-24T10:55:39;13.90;99.90
7000;DHT22;3540;53.242;10.408;2023-04-24T10:58:05;14.10;99.90
7000;DHT22;3540;53.242;10.408;2023-04-24T11:00:30;14.30;99.90
7000;DHT22;3540;53.242;10.408;2023-04-24T11:02:56;14.50;99.90
7000;DHT22;3540;53.242;10.408;2023-04-24T11:05:50;14.90;99.90
7000;DHT22;3540;53.242;10.408;2023-04-24T11:08:31;15.30;99.90
7000;DHT22;3540;53.242;10.408;2023-04-24T11:22:13;14.20;99.90
7000;DHT22;3540;53.242;10.408;2023-04-24T11:34:53;15.30;99.90
7000;DHT22;3540;53.242;10.408;2023-04-24T11:37:19;15.20;99.90
7000;DHT22;3540;53.242;10.408;2023-04-24T11:39:45;14.90;99.90
7000;DHT22;3540;53.242;10.408;2023-04-24T11:42:14;15.00;99.90
7000;DHT22;3540;53.242;10.408;2023-04-24T11:44:42;15.20;99.90
7000;DHT22;3540;53.242;10.408;2023-04-24T11:47:08;15.40;99.90
7000;DHT22;3540;53.242;10.408;2023-04-24T11:49:36;15.40;99.90
7000;DHT22;3540;53.242;10.408;2023-04-24T11:52:02;15.40;99.90
7000;DHT22;3540;53.242;10.408;2023-04-24T11:54:28;15.20;99.90
7000;DHT22;3540;53.242;10.408;2023-04-24T11:56:55;15.30;99.90
7000;DHT22;3540;53.242;10.408;2023-04-24T11:59:21;14.80;99.90
7000;DHT22;3540;53.242;10.408;2023-04-24T12:01:47;14.40;99.90
7000;DHT22;3540;53.242;10.408;2023-04-24T12:04:15;14.30;99.90
7000;DHT22;3540;53.242;10.408;2023-04-24T12:07:00;14.40;99.90
7000;DHT22;3540;53.242;10.408;2023-04-24T12:09:26;14.10;99.90
7000;DHT22;3540;53.242;10.408;2023-04-24T12:11:56;13.70;99.90
7000;DHT22;3540;53.242;10.408;2023-04-24T12:14:24;13.70;99.90
7000;DHT22;3540;53.242;10.408;2023-04-24T12:16:50;13.80;99.90
7000;DHT22;3540;53.242;10.408;2023-04-24T12:19:23;14.10;99.90
7000;DHT22;3540;53.242;10.408;2023-04-24T12:22:03;14.20;99.90
7000;DHT22;3540;53.242;10.408;2023-04-24T12:24:30;14.30;99.90
7000;DHT22;3540;53.242;10.408;2023-04-24T12:26:57;14.40;99.90
7000;DHT22;3540;53.242;10.408;2023-04-24T12:29:24;14.30;99.90
7000;DHT22;3540;53.242;10.408;2023-04-24T12:31:51;14.10;99.90
7000;DHT22;3540;53.242;10.408;2023-04-24T12:34:21;14.50;99.90
7000;DHT22;3540;53.242;10.408;2023-04-24T12:36:48;14.60;99.90
7000;DHT22;3540;53.242;10.408;2023-04-24T12:39:17;14.90;99.90
7000;DHT22;3540;53.242;10.408;2023-04-24T12:41:57;15.00;99.90
7000;DHT22;3540;53.242;10.408;2023-04-24T12:44:35;15.00;99.90
7000;DHT22;3540;53.242;10.408;2023-04-24T12:47:02;14.70;99.90
7000;DHT22;3540;53.242;10.408;2023-04-24T12:49:30;14.70;99.90
7000;DHT22;3540;53.242;10.408;2023-04-24T12:51:56;14.60;99.90
7000;DHT22;3540;53.242;10.408;2023-04-24T12:54:22;14.30;99.90
7000;DHT22;3540;53.242;10.408;2023-04-24T12:56:47;14.00;99.90
7000;DHT22;3540;53.242;10.408;2023-04-24T12:59:13;13.80;99.90
7000;DHT22;3540;53.242;10.408;2023-04-24T13:01:40;13.60;99.90
7000;DHT22;3540;53.242;10.408;2023-04-24T13:04:06;13.30;99.90
7000;DHT22;3540;53.242;10.408;2023-04-24T13:06:31;13.20;99.90
7000;DHT22;3540;53.242;10.408;2023-04-24T13:08:57;13.20;99.90
7000;DHT22;3540;53.242;10.408;2023-04-24T13:11:23;13.00;99.90
7000;DHT22;3540;53.242;10.408;2023-04-24T13:13:50;13.00;99.90
7000;DHT22;3540;53.242;10.408;2023-04-24T13:16:15;13.00;99.90
7000;DHT22;3540;53.242;10.408;2023-04-24T13:18:41;12.90;99.90
7000;DHT22;3540;53.242;10.408;2023-04-24T13:21:07;12.80;99.90
7000;DHT22;3540;53.242;10.408;2023-04-24T13:23:32;12.90;99.90
7000;DHT22;3540;53.242;10.408;2023-04-24T13:25:58;12.90;99.90
7000;DHT22;3540;53.242;10.408;2023-04-24T13:28:24;12.80;99.90
7000;DHT22;3540;53.242;10.408;2023-04-24T13:30:51;13.00;99.90
7000;DHT22;3540;53.242;10.408;2023-04-24T13:33:16;13.00;99.90
7000;DHT22;3540;53.242;10.408;2023-04-24T13:35:42;13.00;99.90
7000;DHT22;3540;53.242;10.408;2023-04-24T13:38:08;13.00;99.90
7000;DHT22;3540;53.242;10.408;2023-04-24T13:40:33;13.10;99.90
7000;DHT22;3540;53.242;10.408;2023-04-24T13:42:59;13.30;99.90
7000;DHT22;3540;53.242;10.408;2023-04-24T13:45:26;13.50;99.90
7000;DHT22;3540;53.242;10.408;2023-04-24T13:47:52;13.80;99.90
7000;DHT22;3540;53.242;10.408;2023-04-24T13:50:19;13.90;99.90
7000;DHT22;3540;53.242;10.408;2023-04-24T13:52:45;14.00;99.90
7000;DHT22;3540;53.242;10.408;2023-04-24T13:55:11;13.80;99.90
7000;DHT22;3540;53.242;10.408;2023-04-24T13:57:37;13.80;99.90
7000;DHT22;3540;53.242;10.408;2023-04-24T14:00:03;13.90;99.90
7000;DHT22;3540;53.242;10.408;2023-04-24T14:02:29;13.80;99.90
7000;DHT22;3540;53.242;10.408;2023-04-24T14:04:55;13.80;99.90
7000;DHT22;3540;53.242;10.408;2023-04-24T14:07:21;13.50;99.90
7000;DHT22;3540;53.242;10.408;2023-04-24T14:09:46;13.40;99.90
7000;DHT22;3540;53.242;10.408;2023-04-24T14:12:12;13.20;99.90
7000;DHT22;3540;53.242;10.408;2023-04-24T14:14:39;12.90;99.90
7000;DHT22;3540;53.242;10.408;2023-04-24T14:17:05;12.90;99.90
7000;DHT22;3540;53.242;10.408;2023-04-24T14:19:30;12.90;99.90
7000;DHT22;3540;53.242;10.408;2023-04-24T14:21:56;12.80;99.90
7000;DHT22;3540;53.242;10.408;2023-04-24T14:24:23;12.90;99.90
7000;DHT22;3540;53.242;10.408;2023-04-24T14:26:49;12.80;99.90
7000;DHT22;3540;53.242;10.408;2023-04-24T14:29:15;12.70;99.90
7000;DHT22;3540;53.242;10.408;2023-04-24T14:31:42;12.70;99.90
7000;DHT22;3540;53.242;10.408;2023-04-24T14:34:08;12.80;99.90
7000;DHT22;3540;53.242;10.408;2023-04-24T14:36:33;12.90;99.90
7000;DHT22;3540;53.242;10.408;2023-04-24T14:38:59;13.00;99.90
7000;DHT22;3540;53.242;10.408;2023-04-24T14:41:25;13.10;99.90
7000;DHT22;3540;53.242;10.408;2023-04-24T14:43:50;13.10;99.90
7000;DHT22;3540;53.242;10.408;2023-04-24T14:46:16;13.00;99.90
7000;DHT22;3540;53.242;10.408;2023-04-24T14:48:42;12.70;99.90
7000;DHT22;3540;53.242;10.408;2023-04-24T14:51:07;12.30;99.90
7000;DHT22;3540;53.242;10.408;2023-04-24T14:53:33;12.20;99.90
7000;DHT22;3540;53.242;10.408;2023-04-24T14:55:59;11.80;99.90
7000;DHT22;3540;53.242;10.408;2023-04-24T14:58:24;11.80;99.90
7000;DHT22;3540;53.242;10.408;2023-04-24T15:00:50;11.80;99.90
7000;DHT22;3540;53.242;10.408;2023-04-24T15:03:18;11.70;99.90
7000;DHT22;3540;53.242;10.408;2023-04-24T15:05:44;11.60;99.90
7000;DHT22;3540;53.242;10.408;2023-04-24T15:08:10;11.40;99.90
7000;DHT22;3540;53.242;10.408;2023-04-24T15:10:35;11.00;99.90
7000;DHT22;3540;53.242;10.408;2023-04-24T15:13:01;10.90;99.90
7000;DHT22;3540;53.242;10.408;2023-04-24T15:15:27;10.80;99.90
7000;DHT22;3540;53.242;10.408;2023-04-24T15:17:52;10.80;99.90
7000;DHT22;3540;53.242;10.408;2023-04-24T15:20:18;10.90;99.90
7000;DHT22;3540;53.242;10.408;2023-04-24T15:22:43;11.00;99.90
7000;DHT22;3540;53.242;10.408;2023-04-24T15:25:10;10.90;99.90
7000;DHT22;3540;53.242;10.408;2023-04-24T15:27:42;10.80;1.00
7000;DHT22;3540;53.242;10.408;2023-04-24T15:30:09;10.70;1.00
7000;DHT22;3540;53.242;10.408;2023-04-24T15:32:36;10.60;1.00
7000;DHT22;3540;53.242;10.408;2023-04-24T15:35:02;10.50;1.00
7000;DHT22;3540;53.242;10.408;2023-04-24T15:37:30;10.30;1.00
7000;DHT22;3540;53.242;10.408;2023-04-24T15:39:56;10.30;1.00
7000;DHT22;3540;53.242;10.408;2023-04-24T15:42:21;10.20;1.00
7000;DHT22;3540;53.242;10.408;2023-04-24T15:44:47;10.20;1.00
7000;DHT22;3540;53.242;10.408;2023-04-24T15:47:12;10.10;1.00
7000;DHT22;3540;53.242;10.408;2023-04-24T15:49:39;10.10;1.00
7000;DHT22;3540;53.242;10.408;2023-04-24T15:52:05;10.00;1.00
7000;DHT22;3540;53.242;10.408;2023-04-24T15:54:31;10.00;1.00
7000;DHT22;3540;53.242;10.408;2023-04-24T15:56:57;9.90;1.00
7000;DHT22;3540;53.242;10.408;2023-04-24T15:59:22;9.60;1.00
7000;DHT22;3540;53.242;10.408;2023-04-24T16:01:49;9.50;58.20
7000;DHT22;3540;53.242;10.408;2023-04-24T16:04:15;9.30;16.70
7000;DHT22;3540;53.242;10.408;2023-04-24T16:06:40;9.10;1.00
7000;DHT22;3540;53.242;10.408;2023-04-24T16:09:08;9.00;8.10
7000;DHT22;3540;53.242;10.408;2023-04-24T16:11:34;8.80;1.00
7000;DHT22;3540;53.242;10.408;2023-04-24T16:14:01;8.60;1.00